Eastern Shore: Past 24 Hour Conditions

 

St. Anthony Airport

05:30 PM NDT 23 July 2014
This table is a summary of hourly weather conditions for the past 24 hours.
Date / Time
(NDT)
Wind(knots) Conditions Visibility(km) Pressure(kPa) Air tempC) Relative humidity(%) Dew pointC) Humidex
23 July 2014
17:30 SW 8 Sunny 16 100.1 25 68 19 32
16:30 SW 13 Mostly Cloudy 16 100.2 25 67 19 32
15:30 WSW 12 Mostly Cloudy 16 100.2 25 68 19 31
14:30 WSW 16 gust 21 Sunny 16 100.2 24 69 18 30
13:30 WSW 15 Mainly Sunny 16 100.3 24 70 18 30
12:30 WSW 15 Sunny 16 100.3 23 72 18 29
11:30 WSW 16 gust 24 Mainly Sunny 16 100.4 22 78 18 28
10:30 WSW 11 gust 18 Cloudy 16 100.4 20 85 18 26
9:30 WSW 14 gust 20 Cloudy 16 100.4 18 91 17 *
8:30 WSW 10 gust 18 Cloudy 16 100.4 18 91 17 *
7:30 SW 14 gust 19 Cloudy 16 100.4 17 93 16 *
6:30 WSW 16 gust 25 Cloudy 16 100.4 17 93 16 *
5:30 WSW 18 gust 23 Cloudy 16 100.4 18 93 16 *
4:30 SW 16 gust 24 Cloudy 16 100.4 18 94 17 *
3:30 WSW 19 gust 26 Cloudy 16 100.4 18 93 17 *
2:30 WSW 12 gust 18 Mainly Clear 16 100.4 18 93 16 *
1:30 SW 13 gust 21 Cloudy 16 100.5 18 92 17 *
0:30 S 11 Light Rain 6 100.5 18 93 17 *
22 July 2014
23:30 SW 11 gust 16 Light Rain 16 100.6 18 90 16 *
22:30 SW 16 gust 21 Light Rain 16 100.6 18 87 16 *
21:30 SW 14 gust 22 Cloudy 16 100.7 20 75 15 *
20:30 SW 16 gust 25 Mainly Sunny 16 100.6 21 68 15 25
19:30 SW 18 gust 24 Sunny 16 100.7 22 63 15 26
18:30 SW 24 gust 31 Sunny 16 100.7 24 55 15 28
17:30 SW 23 gust 30 Sunny 16 100.7 25 54 15 29
 
Map of Atlantic - Newfoundland marine weather areas Southwestern Grand Banks - 44138 Banquereau - 44139 Tail of the Bank - 44140 Nickerson Bank - 44251 Northeast Burgeo Bank - 44255 Blanc-Sablon Airport Cap Whittle Chevery Natashquan Airport Heath Point Miscou Island Grand Étang Ingonish Beach North Mountain St.Paul Island J.A. Douglas McCurdy Sydney Airport Charlottetown Airport East Point North Cape Argentia Bonavista Burgeo Cape Race Corner Brook Daniel's Harbour Englee Ferolle Point La Scie Port aux Basques Rocky Harbour Sagona Island St. Anthony Airport St. John's Int'l Airport St. Lawrence Stephenville Airport Twillingate Winterland Wreckhouse Cartwright Airport Mary's Harbour Grates Cove Pool's Island Marticot Island Long Pond Îles de la Madeleine Airport
Legend: buoyBuoy land stationLand Station